Time;durP1;ratioP1;P1;durP2;ratioP2;P2;SDS_P1;SDS_P2;PMS_P1;PMS_P2;Temp;Humidity;BMP_temperature;BMP_pressure;BME280_temperature;BME280_humidity;BME280_pressure;Samples;Min_cycle;Max_cycle;Signal;HPM_P1;HPM_P2
2022/04/05 00:01:26;;;;;;;65.25;8.63;;;;;;;;;;5092669;28;20797;-70
2022/04/05 00:03:53;;;;;;;64.90;9.20;;;;;;;;;;5090362;28;20208;-71
2022/04/05 00:06:20;;;;;;;66.10;8.27;;;;;;;;;;5093548;28;20220;-71
2022/04/05 00:08:47;;;;;;;64.57;8.57;;;;;;;;;;5092938;28;20320;-71
2022/04/05 00:11:14;;;;;;;66.20;8.30;;;;;;;;;;5093617;28;20209;-70
2022/04/05 00:13:41;;;;;;;64.60;8.30;;;;;;;;;;5093717;28;20300;-69
2022/04/05 00:16:10;;;;;;;65.18;7.80;;;;;;;;;;5093968;28;20232;-71
2022/04/05 00:18:38;;;;;;;64.65;8.18;;;;;;;;;;5092947;28;20590;-71
2022/04/05 00:21:06;;;;;;;64.57;8.00;;;;;;;;;;5093432;28;20204;-71
2022/04/05 00:23:33;;;;;;;64.28;7.70;;;;;;;;;;5093062;28;20208;-70
2022/04/05 00:26:00;;;;;;;66.38;7.65;;;;;;;;;;5093173;28;20225;-70
2022/04/05 00:28:27;;;;;;;65.30;8.45;;;;;;;;;;5092505;28;20724;-71
2022/04/05 00:30:55;;;;;;;64.93;8.30;;;;;;;;;;5093506;28;20227;-71
2022/04/05 00:33:23;;;;;;;64.60;7.97;;;;;;;;;;5092418;28;20587;-71
2022/04/05 00:35:51;;;;;;;65.88;7.53;;;;;;;;;;5089997;28;20664;-70
2022/04/05 00:38:18;;;;;;;66.05;9.18;;;;;;;;;;5092445;28;20672;-70
2022/04/05 00:40:46;;;;;;;64.70;7.90;;;;;;;;;;5093398;28;20205;-71
2022/04/05 00:43:13;;;;;;;63.70;7.82;;;;;;;;;;5092900;28;20303;-70
2022/04/05 00:45:40;;;;;;;66.03;8.15;;;;;;;;;;5092814;28;20200;-71
2022/04/05 00:48:07;;;;;;;65.32;8.70;;;;;;;;;;5092370;28;20287;-71
2022/04/05 00:50:37;;;;;;;64.10;7.10;;;;;;;;;;5092538;28;20248;-71
2022/04/05 00:53:06;;;;;;;64.07;7.57;;;;;;;;;;5092646;28;20302;-71
2022/04/05 00:55:34;;;;;;;62.08;6.57;;;;;;;;;;5093216;28;20211;-71
2022/04/05 00:58:02;;;;;;;65.30;8.38;;;;;;;;;;5092256;28;20311;-71
2022/04/05 01:00:30;;;;;;;65.10;8.35;;;;;;;;;;5093387;28;20205;-70
2022/04/05 01:02:58;;;;;;;63.25;7.55;;;;;;;;;;5097649;28;20216;-69
2022/04/05 01:05:26;;;;;;;65.28;8.20;;;;;;;;;;5098914;28;20242;-70
2022/04/05 01:07:56;;;;;;;63.53;7.60;;;;;;;;;;5084403;28;20264;-69
2022/04/05 01:10:23;;;;;;;63.95;8.50;;;;;;;;;;5081204;28;20402;-71
2022/04/05 01:12:50;;;;;;;63.17;7.82;;;;;;;;;;5078323;28;20295;-71
2022/04/05 01:15:17;;;;;;;63.33;7.65;;;;;;;;;;5080523;28;20241;-69
2022/04/05 01:17:44;;;;;;;62.75;7.53;;;;;;;;;;5079777;28;20227;-71
2022/04/05 01:20:12;;;;;;;67.18;8.85;;;;;;;;;;5079890;28;20215;-69
2022/04/05 01:22:46;;;;;;;62.47;7.40;;;;;;;;;;5079566;28;20209;-70
2022/04/05 01:25:15;;;;;;;65.18;8.00;;;;;;;;;;5081108;28;20217;-69
2022/04/05 01:27:42;;;;;;;65.60;7.90;;;;;;;;;;5073108;28;20316;-71
2022/04/05 01:30:10;;;;;;;65.28;7.93;;;;;;;;;;5072470;28;20229;-72
2022/04/05 01:32:38;;;;;;;68.38;8.98;;;;;;;;;;5072515;28;20209;-72
2022/04/05 01:35:06;;;;;;;64.68;8.10;;;;;;;;;;5072358;28;20300;-71
2022/04/05 01:37:33;;;;;;;66.20;8.48;;;;;;;;;;5079290;28;20239;-72
2022/04/05 01:40:01;;;;;;;63.92;8.18;;;;;;;;;;5080731;28;20205;-71
2022/04/05 01:42:29;;;;;;;63.13;7.32;;;;;;;;;;5084515;28;20248;-70
2022/04/05 01:44:57;;;;;;;65.13;8.30;;;;;;;;;;5084349;28;20201;-70
2022/04/05 01:47:24;;;;;;;67.82;8.18;;;;;;;;;;5084143;28;20292;-71
2022/04/05 01:49:51;;;;;;;72.03;9.63;;;;;;;;;;5085862;28;20232;-71
2022/04/05 01:52:18;;;;;;;64.70;8.00;;;;;;;;;;5087951;28;20296;-71
2022/04/05 01:54:46;;;;;;;65.45;8.63;;;;;;;;;;5084708;28;20302;-71
2022/04/05 01:57:15;;;;;;;64.10;8.50;;;;;;;;;;5074002;28;20704;-72
2022/04/05 01:59:44;;;;;;;64.30;7.90;;;;;;;;;;5092352;28;20318;-72
2022/04/05 02:02:12;;;;;;;66.07;8.90;;;;;;;;;;5092512;28;20299;-72
2022/04/05 02:04:40;;;;;;;65.45;8.60;;;;;;;;;;5092355;28;20240;-72
2022/04/05 02:07:10;;;;;;;64.18;8.00;;;;;;;;;;5091750;28;20311;-69
2022/04/05 02:09:37;;;;;;;65.88;8.90;;;;;;;;;;5088410;28;20200;-69
2022/04/05 02:12:05;;;;;;;65.70;8.82;;;;;;;;;;5071529;28;20204;-71
2022/04/05 02:14:32;;;;;;;64.53;7.88;;;;;;;;;;5072363;28;20211;-73
2022/04/05 02:17:01;;;;;;;63.80;8.30;;;;;;;;;;5072805;28;20237;-72
2022/04/05 02:19:28;;;;;;;65.03;8.75;;;;;;;;;;5071328;28;20291;-73
2022/04/05 02:21:55;;;;;;;67.13;8.00;;;;;;;;;;5071572;28;20204;-71
2022/04/05 02:24:22;;;;;;;63.47;7.30;;;;;;;;;;5071671;28;20204;-73
2022/04/05 02:26:49;;;;;;;66.55;8.73;;;;;;;;;;5071562;28;20229;-73
2022/04/05 02:29:17;;;;;;;65.55;8.82;;;;;;;;;;5070579;28;20237;-73
2022/04/05 02:31:44;;;;;;;64.28;8.70;;;;;;;;;;5071313;28;20212;-72
2022/04/05 02:34:12;;;;;;;68.30;8.73;;;;;;;;;;5071369;28;20212;-73
2022/04/05 02:36:39;;;;;;;64.88;8.32;;;;;;;;;;5071373;28;20205;-71
2022/04/05 02:39:07;;;;;;;66.88;8.15;;;;;;;;;;5071017;28;20312;-73
2022/04/05 02:41:34;;;;;;;64.93;8.75;;;;;;;;;;5070604;28;20211;-73
2022/04/05 02:44:02;;;;;;;65.05;8.75;;;;;;;;;;5068500;28;20223;-70
2022/04/05 02:46:29;;;;;;;65.20;8.10;;;;;;;;;;5071267;28;20240;-73
2022/04/05 02:48:56;;;;;;;66.93;8.73;;;;;;;;;;5069972;28;20237;-72
2022/04/05 02:51:25;;;;;;;66.85;8.43;;;;;;;;;;5071029;28;20205;-73
2022/04/05 02:53:52;;;;;;;67.28;8.80;;;;;;;;;;5071309;28;20200;-72
2022/04/05 02:56:19;;;;;;;66.43;8.60;;;;;;;;;;5071410;28;20666;-73
2022/04/05 02:58:48;;;;;;;66.63;9.00;;;;;;;;;;5070525;28;20598;-72
2022/04/05 03:01:16;;;;;;;66.55;9.43;;;;;;;;;;5071381;28;20232;-73
2022/04/05 03:03:43;;;;;;;67.32;9.23;;;;;;;;;;5070692;28;20673;-72
2022/04/05 03:06:11;;;;;;;68.15;9.93;;;;;;;;;;5074207;28;20212;-72
2022/04/05 03:08:40;;;;;;;68.25;9.00;;;;;;;;;;5073877;28;20231;-70
2022/04/05 03:11:08;;;;;;;65.78;8.57;;;;;;;;;;5074409;28;20212;-72
2022/04/05 03:13:35;;;;;;;65.47;8.63;;;;;;;;;;5073001;28;20212;-70
2022/04/05 03:16:02;;;;;;;64.65;10.00;;;;;;;;;;5073143;28;20688;-73
2022/04/05 03:18:29;;;;;;;66.30;9.45;;;;;;;;;;5074236;28;20657;-72
2022/04/05 03:20:56;;;;;;;67.70;8.55;;;;;;;;;;5074816;28;20215;-70
2022/04/05 03:23:24;;;;;;;66.97;9.45;;;;;;;;;;5074342;28;20312;-72
2022/04/05 03:25:53;;;;;;;66.85;8.77;;;;;;;;;;5074424;28;20209;-71
2022/04/05 03:28:20;;;;;;;69.28;9.38;;;;;;;;;;5073736;28;20232;-71
2022/04/05 03:30:48;;;;;;;67.40;9.95;;;;;;;;;;5073986;28;20292;-71
2022/04/05 03:33:15;;;;;;;66.80;9.07;;;;;;;;;;5074216;28;20678;-70
2022/04/05 03:35:43;;;;;;;67.00;9.10;;;;;;;;;;5074363;28;20274;-70
2022/04/05 03:38:10;;;;;;;67.70;9.18;;;;;;;;;;5073845;28;20653;-71
2022/04/05 03:40:37;;;;;;;66.35;10.10;;;;;;;;;;5074321;28;20247;-70
2022/04/05 03:43:11;;;;;;;67.47;9.85;;;;;;;;;;5073963;28;20205;-70
2022/04/05 03:45:38;;;;;;;66.43;9.18;;;;;;;;;;5074440;28;20204;-70
2022/04/05 03:48:05;;;;;;;66.70;9.93;;;;;;;;;;5093337;28;20247;-71
2022/04/05 03:50:33;;;;;;;69.07;10.52;;;;;;;;;;5094496;28;20223;-71
2022/04/05 03:53:00;;;;;;;69.38;10.23;;;;;;;;;;5094138;28;20790;-70
2022/04/05 03:55:27;;;;;;;65.57;9.40;;;;;;;;;;5094236;28;20211;-70
2022/04/05 03:57:54;;;;;;;69.72;10.32;;;;;;;;;;5093232;28;20314;-70
2022/04/05 04:00:23;;;;;;;68.95;9.48;;;;;;;;;;5094282;28;20295;-68
2022/04/05 04:02:50;;;;;;;67.35;10.27;;;;;;;;;;5094128;28;20698;-70
2022/04/05 04:05:20;;;;;;;67.07;9.93;;;;;;;;;;5093975;28;20204;-70
2022/04/05 04:07:47;;;;;;;66.50;10.13;;;;;;;;;;5093395;28;20761;-70
2022/04/05 04:10:15;;;;;;;66.85;10.48;;;;;;;;;;5093489;28;20633;-70
2022/04/05 04:12:42;;;;;;;66.50;9.95;;;;;;;;;;5093771;28;20227;-70
2022/04/05 04:15:10;;;;;;;68.70;10.40;;;;;;;;;;5093766;28;20580;-70
2022/04/05 04:17:38;;;;;;;68.38;10.65;;;;;;;;;;5080079;28;20271;-70
2022/04/05 04:20:06;;;;;;;71.55;10.80;;;;;;;;;;5073690;28;20315;-70
2022/04/05 04:22:33;;;;;;;66.35;9.90;;;;;;;;;;5073455;28;20231;-69
2022/04/05 04:25:00;;;;;;;67.07;10.48;;;;;;;;;;5073093;28;20209;-69
2022/04/05 04:27:27;;;;;;;65.63;9.45;;;;;;;;;;5072430;28;20492;-70
2022/04/05 04:29:54;;;;;;;70.30;10.95;;;;;;;;;;5073120;28;20205;-70
2022/04/05 04:32:22;;;;;;;67.70;10.52;;;;;;;;;;5073021;28;20236;-70
2022/04/05 04:34:50;;;;;;;68.53;10.73;;;;;;;;;;5073317;28;20208;-70
2022/04/05 04:37:17;;;;;;;66.85;9.80;;;;;;;;;;5072167;28;20221;-70
2022/04/05 04:39:45;;;;;;;67.30;9.95;;;;;;;;;;5073114;28;20749;-70
2022/04/05 04:42:12;;;;;;;66.20;9.43;;;;;;;;;;5073406;28;20205;-70
2022/04/05 04:44:40;;;;;;;66.43;9.70;;;;;;;;;;5072836;28;20208;-70
2022/04/05 04:47:08;;;;;;;66.00;9.60;;;;;;;;;;5071335;28;20239;-70
2022/04/05 04:49:35;;;;;;;65.75;9.80;;;;;;;;;;5083274;28;20224;-70
2022/04/05 04:52:04;;;;;;;69.93;10.80;;;;;;;;;;5092593;28;20301;-70
2022/04/05 04:54:31;;;;;;;66.30;9.85;;;;;;;;;;5093123;28;20212;-71
2022/04/05 04:56:58;;;;;;;74.40;10.43;;;;;;;;;;5093133;28;20295;-69
2022/04/05 04:59:25;;;;;;;68.78;10.75;;;;;;;;;;5092418;28;20230;-69
2022/04/05 05:01:52;;;;;;;67.32;9.15;;;;;;;;;;5092928;28;20204;-71
2022/04/05 05:04:19;;;;;;;67.72;9.32;;;;;;;;;;5092418;28;20302;-71
2022/04/05 05:06:47;;;;;;;65.22;9.05;;;;;;;;;;5092703;28;20224;-70
2022/04/05 05:09:15;;;;;;;66.97;10.45;;;;;;;;;;5092044;28;20220;-70
2022/04/05 05:11:44;;;;;;;67.13;9.90;;;;;;;;;;5092578;28;20301;-70
2022/04/05 05:14:11;;;;;;;69.35;9.68;;;;;;;;;;5092505;28;20200;-70
2022/04/05 05:16:38;;;;;;;68.10;9.63;;;;;;;;;;5092707;28;20299;-70
2022/04/05 05:19:06;;;;;;;65.97;9.63;;;;;;;;;;5090598;28;20311;-70
2022/04/05 05:21:33;;;;;;;71.85;9.75;;;;;;;;;;5089481;28;20205;-70
2022/04/05 05:24:00;;;;;;;68.68;9.73;;;;;;;;;;5092366;28;20205;-69
2022/04/05 05:26:29;;;;;;;68.72;9.85;;;;;;;;;;5092125;28;20210;-71
2022/04/05 05:28:56;;;;;;;66.50;9.90;;;;;;;;;;5090599;28;20242;-71
2022/04/05 05:31:24;;;;;;;67.32;9.95;;;;;;;;;;5092216;28;20204;-70
2022/04/05 05:33:51;;;;;;;67.18;10.50;;;;;;;;;;5092325;28;20219;-71
2022/04/05 05:36:18;;;;;;;69.18;10.25;;;;;;;;;;5092371;28;20375;-71
2022/04/05 05:38:45;;;;;;;67.05;9.23;;;;;;;;;;5091662;28;20232;-71
2022/04/05 05:41:12;;;;;;;67.85;9.77;;;;;;;;;;5092338;28;20199;-71
2022/04/05 05:43:45;;;;;;;70.88;10.70;;;;;;;;;;5092182;28;20211;-71
2022/04/05 05:46:12;;;;;;;69.88;11.02;;;;;;;;;;5091850;28;20208;-71
2022/04/05 05:48:39;;;;;;;65.90;10.40;;;;;;;;;;5091303;28;20232;-70
2022/04/05 05:51:07;;;;;;;66.90;10.00;;;;;;;;;;5091115;28;20308;-71
2022/04/05 05:53:34;;;;;;;68.75;9.57;;;;;;;;;;5072178;28;20772;-71
2022/04/05 05:56:01;;;;;;;66.55;10.27;;;;;;;;;;5071846;28;20233;-71
2022/04/05 05:58:29;;;;;;;67.00;10.63;;;;;;;;;;5070873;28;20307;-71
2022/04/05 06:00:57;;;;;;;69.45;10.25;;;;;;;;;;5072022;28;20243;-71
2022/04/05 06:03:24;;;;;;;66.47;10.32;;;;;;;;;;5071848;28;20240;-72
2022/04/05 06:05:51;;;;;;;66.68;10.23;;;;;;;;;;5072140;28;20296;-69
2022/04/05 06:08:19;;;;;;;65.53;9.60;;;;;;;;;;5070643;28;20598;-70
2022/04/05 06:10:46;;;;;;;65.43;9.88;;;;;;;;;;5072094;28;20414;-71
2022/04/05 06:13:13;;;;;;;71.05;10.13;;;;;;;;;;5071275;28;20236;-70
2022/04/05 06:15:40;;;;;;;73.10;9.85;;;;;;;;;;5070925;28;20209;-71
2022/04/05 06:18:09;;;;;;;66.20;9.82;;;;;;;;;;5071007;28;20243;-71
2022/04/05 06:20:36;;;;;;;67.72;9.60;;;;;;;;;;5071827;28;20642;-71
2022/04/05 06:23:04;;;;;;;67.85;10.00;;;;;;;;;;5071380;28;20211;-71
2022/04/05 06:25:32;;;;;;;66.35;9.40;;;;;;;;;;5086506;28;20216;-69
2022/04/05 06:28:02;;;;;;;72.45;9.88;;;;;;;;;;5090913;28;20238;-71
2022/04/05 06:30:29;;;;;;;66.80;9.82;;;;;;;;;;5091655;28;20471;-71
2022/04/05 06:33:05;;;;;;;66.50;10.05;;;;;;;;;;5091255;28;20243;-71
2022/04/05 06:35:34;;;;;;;69.47;10.57;;;;;;;;;;5091886;28;20211;-71
2022/04/05 06:38:01;;;;;;;68.68;9.95;;;;;;;;;;5090847;28;20220;-71
2022/04/05 06:40:28;;;;;;;68.60;9.68;;;;;;;;;;5093974;28;20212;-71
2022/04/05 06:42:55;;;;;;;66.53;9.65;;;;;;;;;;5095470;28;20684;-71
2022/04/05 06:45:24;;;;;;;69.30;9.88;;;;;;;;;;5095161;28;20226;-72
2022/04/05 06:47:51;;;;;;;66.47;8.93;;;;;;;;;;5094282;28;20224;-72
2022/04/05 06:50:24;;;;;;;65.35;8.73;;;;;;;;;;5094705;28;20314;-71
2022/04/05 06:52:53;;;;;;;67.38;9.48;;;;;;;;;;5095083;28;20239;-71
2022/04/05 06:55:20;;;;;;;68.15;9.75;;;;;;;;;;5091703;28;20208;-71
2022/04/05 06:57:47;;;;;;;70.70;9.75;;;;;;;;;;5094249;28;20315;-71
2022/04/05 07:00:17;;;;;;;67.95;9.30;;;;;;;;;;5095252;28;20214;-71
2022/04/05 07:02:44;;;;;;;68.55;9.50;;;;;;;;;;5095186;28;20226;-72
2022/04/05 07:05:11;;;;;;;66.38;9.38;;;;;;;;;;5090042;28;20596;-71
2022/04/05 07:07:39;;;;;;;65.50;8.70;;;;;;;;;;5090849;28;20230;-70
2022/04/05 07:10:09;;;;;;;65.72;9.50;;;;;;;;;;5095152;28;20204;-71
2022/04/05 07:12:36;;;;;;;67.28;10.02;;;;;;;;;;5094639;28;20204;-71
2022/04/05 07:15:04;;;;;;;64.43;8.90;;;;;;;;;;5094834;28;20200;-71
2022/04/05 07:17:31;;;;;;;66.53;9.15;;;;;;;;;;5094035;28;20226;-71
2022/04/05 07:19:58;;;;;;;65.32;9.70;;;;;;;;;;5094453;28;20242;-72
2022/04/05 07:22:26;;;;;;;64.57;9.07;;;;;;;;;;5094906;28;20197;-71
2022/04/05 07:24:53;;;;;;;66.78;9.07;;;;;;;;;;5095142;28;20316;-70
2022/04/05 07:27:22;;;;;;;71.15;9.02;;;;;;;;;;5093963;28;20614;-71
2022/04/05 07:29:49;;;;;;;67.30;9.32;;;;;;;;;;5091491;28;20256;-71
2022/04/05 07:32:16;;;;;;;65.40;8.82;;;;;;;;;;5094192;28;20751;-71
2022/04/05 07:34:43;;;;;;;74.85;9.30;;;;;;;;;;5093475;28;20295;-71
2022/04/05 07:37:11;;;;;;;67.47;9.48;;;;;;;;;;5093272;28;20303;-71
2022/04/05 07:39:40;;;;;;;66.07;9.63;;;;;;;;;;5094248;28;20201;-71
2022/04/05 07:42:08;;;;;;;66.28;8.07;;;;;;;;;;5094250;28;20240;-70
2022/04/05 07:44:36;;;;;;;65.40;9.20;;;;;;;;;;5094321;28;20226;-72
2022/04/05 07:47:05;;;;;;;66.60;9.07;;;;;;;;;;5093604;28;20356;-72
2022/04/05 07:49:32;;;;;;;64.15;7.47;;;;;;;;;;5093518;28;20633;-71
2022/04/05 07:51:59;;;;;;;66.68;9.05;;;;;;;;;;5093292;28;20200;-71
2022/04/05 07:54:26;;;;;;;68.78;7.75;;;;;;;;;;5093974;28;20284;-71
2022/04/05 07:56:53;;;;;;;65.45;8.38;;;;;;;;;;5094445;28;20626;-71
2022/04/05 07:59:21;;;;;;;63.60;7.97;;;;;;;;;;5092347;28;20207;-71
2022/04/05 08:01:49;;;;;;;69.55;8.40;;;;;;;;;;5091764;28;20230;-71
2022/04/05 08:04:16;;;;;;;65.88;8.55;;;;;;;;;;5093697;28;20710;-71
2022/04/05 08:06:44;;;;;;;69.28;8.90;;;;;;;;;;5093666;28;20291;-72
2022/04/05 08:09:11;;;;;;;67.15;7.95;;;;;;;;;;5092638;28;20230;-71
2022/04/05 08:11:39;;;;;;;67.25;9.07;;;;;;;;;;5078434;28;20233;-71
2022/04/05 08:14:06;;;;;;;64.30;7.78;;;;;;;;;;5072382;28;20291;-72
2022/04/05 08:16:33;;;;;;;68.47;8.57;;;;;;;;;;5073392;28;20205;-71
2022/04/05 08:19:02;;;;;;;68.65;8.35;;;;;;;;;;5072206;28;20295;-71
2022/04/05 08:21:30;;;;;;;65.30;8.10;;;;;;;;;;5072679;28;20209;-71
2022/04/05 08:23:57;;;;;;;66.28;8.65;;;;;;;;;;5073417;28;20660;-71
2022/04/05 08:26:24;;;;;;;64.93;8.27;;;;;;;;;;5073101;28;20238;-69
2022/04/05 08:28:55;;;;;;;67.32;7.95;;;;;;;;;;5072459;28;20298;-71
2022/04/05 08:31:22;;;;;;;63.83;8.35;;;;;;;;;;5072031;28;20636;-71
2022/04/05 08:33:49;;;;;;;66.13;9.23;;;;;;;;;;5071647;28;20680;-71
2022/04/05 08:36:17;;;;;;;65.13;7.70;;;;;;;;;;5070331;28;20205;-72
2022/04/05 08:38:45;;;;;;;65.97;8.45;;;;;;;;;;5072270;28;20312;-71
2022/04/05 08:41:13;;;;;;;64.90;8.10;;;;;;;;;;5072970;28;20209;-72
2022/04/05 08:43:43;;;;;;;66.88;8.63;;;;;;;;;;5073353;28;20212;-72
2022/04/05 08:46:10;;;;;;;66.95;9.07;;;;;;;;;;5073035;28;20219;-72
2022/04/05 08:48:38;;;;;;;66.15;8.30;;;;;;;;;;5072156;28;20326;-72
2022/04/05 08:51:06;;;;;;;65.50;7.85;;;;;;;;;;5072859;28;20228;-72
2022/04/05 08:53:35;;;;;;;71.88;9.50;;;;;;;;;;5072343;28;20296;-72
2022/04/05 08:56:02;;;;;;;67.07;8.70;;;;;;;;;;5072472;28;20206;-72
2022/04/05 08:58:29;;;;;;;66.18;8.25;;;;;;;;;;5071857;28;20252;-72
2022/04/05 09:00:56;;;;;;;65.38;8.15;;;;;;;;;;5072806;28;20252;-72
2022/04/05 09:03:23;;;;;;;66.30;8.40;;;;;;;;;;5072580;28;20209;-72
2022/04/05 09:05:51;;;;;;;66.30;8.68;;;;;;;;;;5071703;28;20201;-72
2022/04/05 09:08:19;;;;;;;68.82;10.57;;;;;;;;;;5083617;28;20235;-71
2022/04/05 09:10:49;;;;;;;67.47;8.50;;;;;;;;;;5092569;28;20654;-71
2022/04/05 09:13:18;;;;;;;65.65;8.25;;;;;;;;;;5092374;28;20296;-71
2022/04/05 09:15:48;;;;;;;66.88;7.47;;;;;;;;;;5092619;28;20207;-72
2022/04/05 09:18:15;;;;;;;65.63;8.07;;;;;;;;;;5091519;28;20313;-72
2022/04/05 09:20:47;;;;;;;68.68;8.00;;;;;;;;;;5092245;28;20212;-71
2022/04/05 09:23:24;;;;;;;66.90;8.32;;;;;;;;;;5092579;28;20244;-72
2022/04/05 09:25:59;;;;;;;63.97;8.07;;;;;;;;;;5092584;28;20292;-71
2022/04/05 09:28:27;;;;;;;67.18;8.02;;;;;;;;;;5091448;28;20593;-72
2022/04/05 09:30:57;;;;;;;70.13;8.02;;;;;;;;;;5092124;28;20214;-70
2022/04/05 09:33:25;;;;;;;64.05;8.00;;;;;;;;;;5092117;28;20208;-72
2022/04/05 09:36:02;;;;;;;64.00;7.75;;;;;;;;;;5092222;28;20201;-71
2022/04/05 09:38:29;;;;;;;66.20;8.35;;;;;;;;;;5091510;28;20708;-70
2022/04/05 09:41:09;;;;;;;68.10;7.65;;;;;;;;;;5088600;28;20204;-71
2022/04/05 09:43:36;;;;;;;65.25;8.45;;;;;;;;;;5091464;28;20200;-71
2022/04/05 09:46:05;;;;;;;63.15;7.72;;;;;;;;;;5092135;28;20257;-71
2022/04/05 09:48:33;;;;;;;64.63;7.93;;;;;;;;;;5090430;28;20271;-71
2022/04/05 09:51:02;;;;;;;65.03;8.13;;;;;;;;;;5091343;28;20235;-71
2022/04/05 09:53:30;;;;;;;69.90;8.30;;;;;;;;;;5091730;28;20241;-71
2022/04/05 09:56:05;;;;;;;65.28;7.50;;;;;;;;;;5091798;28;20209;-70
2022/04/05 09:58:33;;;;;;;64.32;7.65;;;;;;;;;;5090816;28;20228;-71
2022/04/05 10:01:07;;;;;;;66.97;8.03;;;;;;;;;;5091986;28;20642;-71
2022/04/05 10:03:34;;;;;;;66.57;7.45;;;;;;;;;;5091899;28;20458;-71
2022/04/05 10:06:02;;;;;;;64.63;8.48;;;;;;;;;;5091877;28;20201;-70
2022/04/05 10:08:30;;;;;;;65.37;7.30;;;;;;;;;;5090747;28;20220;-71
2022/04/05 10:10:57;;;;;;;64.55;8.25;;;;;;;;;;5091453;28;20455;-71
2022/04/05 10:13:26;;;;;;;62.72;7.40;;;;;;;;;;5091115;28;20302;-71
2022/04/05 10:15:53;;;;;;;66.60;7.83;;;;;;;;;;5091549;28;20208;-71
2022/04/05 10:18:21;;;;;;;69.70;9.47;;;;;;;;;;5091241;28;20473;-71
2022/04/05 10:20:49;;;;;;;63.80;8.37;;;;;;;;;;5091787;28;20447;-71
2022/04/05 10:23:20;;;;;;;66.70;8.27;;;;;;;;;;5091630;28;20452;-71
2022/04/05 10:25:50;;;;;;;62.77;7.50;;;;;;;;;;5091980;28;20509;-71
2022/04/05 10:28:18;;;;;;;64.67;8.07;;;;;;;;;;5090921;28;20991;-71
2022/04/05 10:30:50;;;;;;;64.57;7.70;;;;;;;;;;5091776;28;20488;-71
2022/04/05 10:33:23;;;;;;;64.17;7.57;;;;;;;;;;5091903;28;20445;-71
2022/04/05 10:35:52;;;;;;;63.67;7.17;;;;;;;;;;5091698;28;20452;-71
2022/04/05 10:38:19;;;;;;;62.67;7.00;;;;;;;;;;5091160;28;20472;-71
2022/04/05 10:41:01;;;;;;;63.23;7.40;;;;;;;;;;5091864;28;20440;-70
2022/04/05 10:43:28;;;;;;;64.13;6.50;;;;;;;;;;5091609;28;20531;-70
2022/04/05 10:45:57;;;;;;;67.37;7.53;;;;;;;;;;5091745;28;21016;-71
2022/04/05 10:48:27;;;;;;;64.50;7.57;;;;;;;;;;5090878;28;21069;-69
2022/04/05 10:51:30;;;;;;;64.80;6.87;;;;;;;;;;5091956;28;20487;-71
2022/04/05 10:54:19;;;;;;;62.80;7.77;;;;;;;;;;5091568;28;20509;-71
2022/04/05 10:57:01;;;;;;;63.77;8.00;;;;;;;;;;5091419;28;20490;-71
2022/04/05 10:59:28;;;;;;;67.00;7.53;;;;;;;;;;5090583;28;20439;-71
2022/04/05 11:01:57;;;;;;;64.17;7.20;;;;;;;;;;5091598;28;20449;-71
2022/04/05 11:04:30;;;;;;;65.30;7.03;;;;;;;;;;5091609;28;20551;-71
2022/04/05 11:07:11;;;;;;;65.43;7.20;;;;;;;;;;5091374;28;20542;-71
2022/04/05 11:09:42;;;;;;;65.00;7.57;;;;;;;;;;5091423;28;20495;-71
2022/04/05 11:12:11;;;;;;;65.43;8.23;;;;;;;;;;5091462;28;20544;-71
2022/04/05 11:14:40;;;;;;;67.70;7.77;;;;;;;;;;5091477;28;20990;-71
2022/04/05 11:17:09;;;;;;;64.10;7.10;;;;;;;;;;5091042;28;20503;-71
2022/04/05 11:19:37;;;;;;;64.30;7.50;;;;;;;;;;5091324;28;20857;-71
2022/04/05 11:22:05;;;;;;;64.32;8.43;;;;;;;;;;5091301;28;20454;-71
2022/04/05 11:24:50;;;;;;;65.30;8.40;;;;;;;;;;5091176;28;20694;-71
2022/04/05 11:27:28;;;;;;;66.27;8.57;;;;;;;;;;5092345;28;20494;-71
2022/04/05 11:30:10;;;;;;;63.13;8.23;;;;;;;;;;5094658;28;20473;-71
2022/04/05 11:32:38;;;;;;;64.70;8.50;;;;;;;;;;5094594;28;20965;-71
2022/04/05 11:35:05;;;;;;;64.07;7.50;;;;;;;;;;5094428;28;20945;-71
2022/04/05 11:37:34;;;;;;;65.70;8.80;;;;;;;;;;5093853;28;20465;-71
2022/04/05 11:40:02;;;;;;;63.67;7.87;;;;;;;;;;5094609;28;20441;-71
2022/04/05 11:42:35;;;;;;;66.27;8.20;;;;;;;;;;5094587;28;20540;-72
2022/04/05 11:45:03;;;;;;;64.47;7.40;;;;;;;;;;5094757;28;20452;-71
2022/04/05 11:47:30;;;;;;;62.17;6.87;;;;;;;;;;5094007;28;20469;-70
2022/04/05 11:49:59;;;;;;;61.97;6.70;;;;;;;;;;5094411;28;20493;-71
2022/04/05 11:52:29;;;;;;;63.83;7.77;;;;;;;;;;5094799;28;20457;-72
2022/04/05 11:57:44;;;;;;;61.20;5.77;;;;;;;;;;5093620;28;20462;-71
2022/04/05 12:00:12;;;;;;;62.90;5.23;;;;;;;;;;5094439;28;20448;-70
2022/04/05 12:02:39;;;;;;;61.57;6.10;;;;;;;;;;5094373;28;20451;-71
2022/04/05 12:05:08;;;;;;;62.70;5.63;;;;;;;;;;5094120;28;20456;-70
2022/04/05 12:07:36;;;;;;;61.17;5.73;;;;;;;;;;5093196;28;20468;-71
2022/04/05 12:10:03;;;;;;;62.77;6.20;;;;;;;;;;5094076;28;20575;-71
2022/04/05 12:12:32;;;;;;;63.43;6.67;;;;;;;;;;5092494;28;20457;-71
2022/04/05 12:14:59;;;;;;;61.93;6.10;;;;;;;;;;5092247;28;20461;-69
2022/04/05 12:17:26;;;;;;;61.10;5.67;;;;;;;;;;5091247;28;20477;-70
2022/04/05 12:19:54;;;;;;;62.27;5.90;;;;;;;;;;5091967;28;20533;-71
2022/04/05 12:22:22;;;;;;;63.40;6.93;;;;;;;;;;5088998;28;20454;-69
2022/04/05 12:24:53;;;;;;;61.53;5.73;;;;;;;;;;5092618;28;20445;-69
2022/04/05 12:27:21;;;;;;;62.17;5.80;;;;;;;;;;5099192;28;20470;-72
2022/04/05 12:29:48;;;;;;;60.87;5.57;;;;;;;;;;5095191;28;20518;-72
2022/04/05 12:32:16;;;;;;;61.67;5.80;;;;;;;;;;5094354;28;20547;-73
2022/04/05 12:34:43;;;;;;;62.33;5.93;;;;;;;;;;5094649;28;20534;-73
2022/04/05 12:37:14;;;;;;;63.60;6.07;;;;;;;;;;5093053;28;20496;-72
2022/04/05 12:39:44;;;;;;;63.40;5.47;;;;;;;;;;5093770;28;20525;-73
2022/04/05 12:42:11;;;;;;;62.00;5.90;;;;;;;;;;5094027;28;20545;-72
2022/04/05 12:44:39;;;;;;;60.50;5.83;;;;;;;;;;5093072;28;20445;-71
2022/04/05 12:47:08;;;;;;;61.60;5.50;;;;;;;;;;5092913;28;21132;-70
2022/04/05 12:49:35;;;;;;;63.40;5.93;;;;;;;;;;5092960;28;20458;-71
2022/04/05 12:52:13;;;;;;;63.50;6.30;;;;;;;;;;5093216;28;20442;-71
2022/04/05 12:54:46;;;;;;;63.50;6.70;;;;;;;;;;5095706;28;20448;-71
2022/04/05 12:57:19;;;;;;;61.57;6.27;;;;;;;;;;5097299;28;20470;-70
2022/04/05 12:59:46;;;;;;;63.20;6.10;;;;;;;;;;5096052;28;21114;-72
2022/04/05 13:02:21;;;;;;;62.47;6.53;;;;;;;;;;5093280;28;20446;-71
2022/04/05 13:04:49;;;;;;;62.30;6.47;;;;;;;;;;5096715;28;20839;-70
2022/04/05 13:07:17;;;;;;;60.87;6.20;;;;;;;;;;5100360;28;20473;-72
2022/04/05 13:09:45;;;;;;;61.53;5.60;;;;;;;;;;5099458;28;20552;-72
2022/04/05 13:12:13;;;;;;;65.40;6.53;;;;;;;;;;5094622;28;20812;-71
2022/04/05 13:14:42;;;;;;;61.00;5.63;;;;;;;;;;5094189;28;20455;-70
2022/04/05 13:17:11;;;;;;;61.83;6.60;;;;;;;;;;5068286;28;20467;-65
2022/04/05 13:19:38;;;;;;;64.17;6.30;;;;;;;;;;5072802;28;20519;-71
2022/04/05 13:22:13;;;;;;;62.47;6.33;;;;;;;;;;5085200;28;20519;-71
2022/04/05 13:24:41;;;;;;;63.07;6.70;;;;;;;;;;5092010;28;20489;-71
2022/04/05 13:27:08;;;;;;;64.43;7.00;;;;;;;;;;5091836;28;21032;-70
2022/04/05 13:29:36;;;;;;;64.63;7.70;;;;;;;;;;5092362;28;20457;-71
2022/04/05 13:32:06;;;;;;;62.90;6.80;;;;;;;;;;5092421;28;20450;-70
2022/04/05 13:34:36;;;;;;;61.93;6.47;;;;;;;;;;5092472;28;20503;-71
2022/04/05 13:37:03;;;;;;;63.87;6.53;;;;;;;;;;5092829;28;20768;-71
2022/04/05 13:39:33;;;;;;;63.47;7.63;;;;;;;;;;5092029;28;20545;-71
2022/04/05 13:42:01;;;;;;;63.07;7.60;;;;;;;;;;5092477;28;20530;-71
2022/04/05 13:44:28;;;;;;;62.87;7.20;;;;;;;;;;5092431;28;20731;-71
2022/04/05 13:46:55;;;;;;;61.70;6.77;;;;;;;;;;5091909;28;20540;-71
2022/04/05 13:49:24;;;;;;;62.50;7.17;;;;;;;;;;5090685;28;20455;-71
2022/04/05 13:51:54;;;;;;;62.87;7.80;;;;;;;;;;5092197;28;21057;-71
2022/04/05 13:54:21;;;;;;;64.67;7.50;;;;;;;;;;5089679;28;20499;-71
2022/04/05 13:56:48;;;;;;;61.97;6.73;;;;;;;;;;5092471;28;20473;-71
2022/04/05 13:59:15;;;;;;;63.07;6.80;;;;;;;;;;5091799;28;20528;-71
2022/04/05 14:01:42;;;;;;;61.63;6.70;;;;;;;;;;5092438;28;20451;-71
2022/04/05 14:04:10;;;;;;;61.90;6.93;;;;;;;;;;5091321;28;20846;-71
2022/04/05 14:06:38;;;;;;;63.03;7.77;;;;;;;;;;5091667;28;20449;-71
2022/04/05 14:09:06;;;;;;;64.77;8.10;;;;;;;;;;5091066;28;20472;-71
2022/04/05 14:11:33;;;;;;;62.60;7.20;;;;;;;;;;5092243;28;20496;-73
2022/04/05 14:14:00;;;;;;;61.17;6.27;;;;;;;;;;5092155;28;20464;-70
2022/04/05 14:16:28;;;;;;;62.50;6.43;;;;;;;;;;5091761;28;20533;-70
2022/04/05 14:18:55;;;;;;;62.83;7.67;;;;;;;;;;5091043;28;20468;-70
2022/04/05 14:21:25;;;;;;;63.20;7.77;;;;;;;;;;5091854;28;20529;-70
2022/04/05 14:23:53;;;;;;;63.63;7.03;;;;;;;;;;5091633;28;20507;-70
2022/04/05 14:26:20;;;;;;;61.70;6.67;;;;;;;;;;5087796;28;20528;-69
2022/04/05 14:28:47;;;;;;;61.37;6.73;;;;;;;;;;5090583;28;20470;-70
2022/04/05 14:31:15;;;;;;;62.30;6.23;;;;;;;;;;5091411;28;20597;-70
2022/04/05 14:33:42;;;;;;;62.23;7.60;;;;;;;;;;5091953;28;20447;-71
2022/04/05 14:36:09;;;;;;;62.20;6.37;;;;;;;;;;5092063;28;20852;-70
2022/04/05 14:38:36;;;;;;;63.30;6.50;;;;;;;;;;5091291;28;20462;-71